sensor_id;sensor_type;location;lat;lon;timestamp;temperature;humidity
44894;DHT22;30625;52.206;21.030;2023-07-31T00:00:06;20.10;99.90
44894;DHT22;30625;52.206;21.030;2023-07-31T00:02:34;20.00;99.90
44894;DHT22;30625;52.206;21.030;2023-07-31T00:05:00;20.00;99.90
44894;DHT22;30625;52.206;21.030;2023-07-31T00:07:26;20.00;99.90
44894;DHT22;30625;52.206;21.030;2023-07-31T00:09:52;20.00;99.90
44894;DHT22;30625;52.206;21.030;2023-07-31T00:12:19;20.00;99.90
44894;DHT22;30625;52.206;21.030;2023-07-31T00:14:45;20.00;99.90
44894;DHT22;30625;52.206;21.030;2023-07-31T00:17:11;20.00;99.90
44894;DHT22;30625;52.206;21.030;2023-07-31T00:19:37;20.00;99.90
44894;DHT22;30625;52.206;21.030;2023-07-31T00:22:03;19.90;99.90
44894;DHT22;30625;52.206;21.030;2023-07-31T00:24:28;19.90;99.90
44894;DHT22;30625;52.206;21.030;2023-07-31T00:26:54;19.90;99.90
44894;DHT22;30625;52.206;21.030;2023-07-31T00:29:20;19.80;99.90
44894;DHT22;30625;52.206;21.030;2023-07-31T00:31:45;19.80;99.90
44894;DHT22;30625;52.206;21.030;2023-07-31T00:34:11;19.80;99.90
44894;DHT22;30625;52.206;21.030;2023-07-31T00:36:37;19.80;99.90
44894;DHT22;30625;52.206;21.030;2023-07-31T00:39:02;19.70;99.90
44894;DHT22;30625;52.206;21.030;2023-07-31T00:41:29;19.70;99.90
44894;DHT22;30625;52.206;21.030;2023-07-31T00:43:54;19.70;99.90
44894;DHT22;30625;52.206;21.030;2023-07-31T00:46:20;19.70;99.90
44894;DHT22;30625;52.206;21.030;2023-07-31T00:48:46;19.60;99.90
44894;DHT22;30625;52.206;21.030;2023-07-31T00:51:12;19.60;99.90
44894;DHT22;30625;52.206;21.030;2023-07-31T00:53:38;19.60;99.90
44894;DHT22;30625;52.206;21.030;2023-07-31T00:56:04;19.60;99.90
44894;DHT22;30625;52.206;21.030;2023-07-31T00:58:30;19.60;99.90
44894;DHT22;30625;52.206;21.030;2023-07-31T01:00:56;19.50;99.90
44894;DHT22;30625;52.206;21.030;2023-07-31T01:03:21;19.50;99.90
44894;DHT22;30625;52.206;21.030;2023-07-31T01:08:37;19.50;99.90
44894;DHT22;30625;52.206;21.030;2023-07-31T01:11:22;19.50;99.90
44894;DHT22;30625;52.206;21.030;2023-07-31T01:13:50;19.50;99.90
44894;DHT22;30625;52.206;21.030;2023-07-31T01:16:16;19.40;99.90
44894;DHT22;30625;52.206;21.030;2023-07-31T01:18:42;19.40;99.90
44894;DHT22;30625;52.206;21.030;2023-07-31T01:26:38;19.40;99.90
44894;DHT22;30625;52.206;21.030;2023-07-31T01:31:48;19.40;99.90
44894;DHT22;30625;52.206;21.030;2023-07-31T01:34:17;19.30;99.90
44894;DHT22;30625;52.206;21.030;2023-07-31T01:36:43;19.30;99.90
44894;DHT22;30625;52.206;21.030;2023-07-31T01:39:09;19.30;99.90
44894;DHT22;30625;52.206;21.030;2023-07-31T01:41:35;19.30;99.90
44894;DHT22;30625;52.206;21.030;2023-07-31T01:44:00;19.30;99.90
44894;DHT22;30625;52.206;21.030;2023-07-31T01:46:26;19.20;99.90
44894;DHT22;30625;52.206;21.030;2023-07-31T01:48:51;19.20;99.90
44894;DHT22;30625;52.206;21.030;2023-07-31T01:51:17;19.00;99.90
44894;DHT22;30625;52.206;21.030;2023-07-31T01:53:43;19.10;99.90
44894;DHT22;30625;52.206;21.030;2023-07-31T01:56:08;19.20;99.90
44894;DHT22;30625;52.206;21.030;2023-07-31T01:58:34;19.10;99.90
44894;DHT22;30625;52.206;21.030;2023-07-31T02:01:00;19.10;99.90
44894;DHT22;30625;52.206;21.030;2023-07-31T02:03:25;19.10;99.90
44894;DHT22;30625;52.206;21.030;2023-07-31T02:05:51;19.00;99.90
44894;DHT22;30625;52.206;21.030;2023-07-31T02:08:17;19.00;99.90
44894;DHT22;30625;52.206;21.030;2023-07-31T02:10:42;19.00;99.90
44894;DHT22;30625;52.206;21.030;2023-07-31T02:13:08;19.00;99.90
44894;DHT22;30625;52.206;21.030;2023-07-31T02:15:34;19.00;99.90
44894;DHT22;30625;52.206;21.030;2023-07-31T02:18:00;18.90;99.90
44894;DHT22;30625;52.206;21.030;2023-07-31T02:20:25;18.90;99.90
44894;DHT22;30625;52.206;21.030;2023-07-31T02:22:51;18.90;99.90
44894;DHT22;30625;52.206;21.030;2023-07-31T02:25:17;18.90;99.90
44894;DHT22;30625;52.206;21.030;2023-07-31T02:27:43;18.80;99.90
44894;DHT22;30625;52.206;21.030;2023-07-31T02:30:09;18.80;99.90
44894;DHT22;30625;52.206;21.030;2023-07-31T02:32:34;18.80;99.90
44894;DHT22;30625;52.206;21.030;2023-07-31T02:35:00;18.80;99.90
44894;DHT22;30625;52.206;21.030;2023-07-31T02:37:26;18.80;99.90
44894;DHT22;30625;52.206;21.030;2023-07-31T02:39:54;18.70;99.90
44894;DHT22;30625;52.206;21.030;2023-07-31T02:42:19;18.80;99.90
44894;DHT22;30625;52.206;21.030;2023-07-31T02:44:45;18.80;99.90
44894;DHT22;30625;52.206;21.030;2023-07-31T02:47:11;18.80;99.90
44894;DHT22;30625;52.206;21.030;2023-07-31T02:49:36;18.70;99.90
44894;DHT22;30625;52.206;21.030;2023-07-31T02:52:02;18.80;99.90
44894;DHT22;30625;52.206;21.030;2023-07-31T02:54:28;18.80;99.90
44894;DHT22;30625;52.206;21.030;2023-07-31T02:56:54;18.70;99.90
44894;DHT22;30625;52.206;21.030;2023-07-31T02:59:20;18.40;99.90
44894;DHT22;30625;52.206;21.030;2023-07-31T03:01:46;18.70;99.90
44894;DHT22;30625;52.206;21.030;2023-07-31T03:04:11;18.70;99.90
44894;DHT22;30625;52.206;21.030;2023-07-31T03:06:37;18.80;99.90
44894;DHT22;30625;52.206;21.030;2023-07-31T03:09:02;18.80;99.90
44894;DHT22;30625;52.206;21.030;2023-07-31T03:11:28;18.80;99.90
44894;DHT22;30625;52.206;21.030;2023-07-31T03:13:54;18.80;99.90
44894;DHT22;30625;52.206;21.030;2023-07-31T03:16:20;18.80;99.90
44894;DHT22;30625;52.206;21.030;2023-07-31T03:18:45;18.80;99.90
44894;DHT22;30625;52.206;21.030;2023-07-31T03:21:12;18.80;99.90
44894;DHT22;30625;52.206;21.030;2023-07-31T03:23:37;18.80;99.90
44894;DHT22;30625;52.206;21.030;2023-07-31T03:26:07;18.80;99.90
44894;DHT22;30625;52.206;21.030;2023-07-31T03:28:33;18.90;99.90
44894;DHT22;30625;52.206;21.030;2023-07-31T03:30:59;18.90;99.90
44894;DHT22;30625;52.206;21.030;2023-07-31T03:33:25;18.80;99.90
44894;DHT22;30625;52.206;21.030;2023-07-31T03:35:51;18.90;99.90
44894;DHT22;30625;52.206;21.030;2023-07-31T03:38:17;18.30;99.90
44894;DHT22;30625;52.206;21.030;2023-07-31T03:40:42;18.90;99.90
44894;DHT22;30625;52.206;21.030;2023-07-31T03:43:08;18.90;99.90
44894;DHT22;30625;52.206;21.030;2023-07-31T03:45:34;18.80;99.90
44894;DHT22;30625;52.206;21.030;2023-07-31T03:47:59;18.80;99.90
44894;DHT22;30625;52.206;21.030;2023-07-31T03:50:25;18.90;99.90
44894;DHT22;30625;52.206;21.030;2023-07-31T03:52:51;18.90;99.90
44894;DHT22;30625;52.206;21.030;2023-07-31T03:55:17;18.90;99.90
44894;DHT22;30625;52.206;21.030;2023-07-31T03:57:43;18.90;99.90
44894;DHT22;30625;52.206;21.030;2023-07-31T04:00:11;18.90;99.90
44894;DHT22;30625;52.206;21.030;2023-07-31T04:02:37;18.90;99.90
44894;DHT22;30625;52.206;21.030;2023-07-31T04:05:03;18.90;99.90
44894;DHT22;30625;52.206;21.030;2023-07-31T04:07:28;18.90;99.90
44894;DHT22;30625;52.206;21.030;2023-07-31T04:09:54;18.90;99.90
44894;DHT22;30625;52.206;21.030;2023-07-31T04:12:20;18.80;99.90
44894;DHT22;30625;52.206;21.030;2023-07-31T04:14:45;18.10;99.90
44894;DHT22;30625;52.206;21.030;2023-07-31T04:17:11;18.80;99.90
44894;DHT22;30625;52.206;21.030;2023-07-31T04:19:37;18.80;99.90
44894;DHT22;30625;52.206;21.030;2023-07-31T04:22:03;18.80;99.90
44894;DHT22;30625;52.206;21.030;2023-07-31T04:24:29;18.80;99.90
44894;DHT22;30625;52.206;21.030;2023-07-31T04:26:54;18.80;99.90
44894;DHT22;30625;52.206;21.030;2023-07-31T04:29:20;18.80;99.90
44894;DHT22;30625;52.206;21.030;2023-07-31T04:31:47;18.80;99.90
44894;DHT22;30625;52.206;21.030;2023-07-31T04:34:13;18.80;99.90
44894;DHT22;30625;52.206;21.030;2023-07-31T04:36:38;18.80;99.90
44894;DHT22;30625;52.206;21.030;2023-07-31T04:39:04;18.80;99.90
44894;DHT22;30625;52.206;21.030;2023-07-31T04:41:30;18.70;99.90
44894;DHT22;30625;52.206;21.030;2023-07-31T04:43:55;18.70;99.90
44894;DHT22;30625;52.206;21.030;2023-07-31T04:46:21;18.70;99.90
44894;DHT22;30625;52.206;21.030;2023-07-31T04:48:46;18.80;99.90
44894;DHT22;30625;52.206;21.030;2023-07-31T04:51:12;18.70;99.90
44894;DHT22;30625;52.206;21.030;2023-07-31T04:53:38;18.70;99.90
44894;DHT22;30625;52.206;21.030;2023-07-31T04:56:03;18.60;99.90
44894;DHT22;30625;52.206;21.030;2023-07-31T04:58:29;18.80;99.90
44894;DHT22;30625;52.206;21.030;2023-07-31T05:00:55;18.70;99.90
44894;DHT22;30625;52.206;21.030;2023-07-31T05:03:20;18.80;99.90
44894;DHT22;30625;52.206;21.030;2023-07-31T05:05:46;18.80;99.90
44894;DHT22;30625;52.206;21.030;2023-07-31T05:08:12;18.90;99.90
44894;DHT22;30625;52.206;21.030;2023-07-31T05:10:37;18.90;99.90
44894;DHT22;30625;52.206;21.030;2023-07-31T05:13:03;18.90;99.90
44894;DHT22;30625;52.206;21.030;2023-07-31T05:15:29;18.90;99.90
44894;DHT22;30625;52.206;21.030;2023-07-31T05:17:55;19.00;99.90
44894;DHT22;30625;52.206;21.030;2023-07-31T05:20:21;19.00;99.90
44894;DHT22;30625;52.206;21.030;2023-07-31T05:22:46;19.00;99.90
44894;DHT22;30625;52.206;21.030;2023-07-31T05:25:12;19.00;99.90
44894;DHT22;30625;52.206;21.030;2023-07-31T05:27:38;19.00;99.90
44894;DHT22;30625;52.206;21.030;2023-07-31T05:30:04;19.10;99.90
44894;DHT22;30625;52.206;21.030;2023-07-31T05:32:30;19.10;99.90
44894;DHT22;30625;52.206;21.030;2023-07-31T05:34:56;19.10;99.90
44894;DHT22;30625;52.206;21.030;2023-07-31T05:37:22;19.10;99.90
44894;DHT22;30625;52.206;21.030;2023-07-31T05:39:48;19.10;99.90
44894;DHT22;30625;52.206;21.030;2023-07-31T05:42:13;19.20;99.90
44894;DHT22;30625;52.206;21.030;2023-07-31T05:44:39;19.20;99.90
44894;DHT22;30625;52.206;21.030;2023-07-31T05:47:05;19.10;99.90
44894;DHT22;30625;52.206;21.030;2023-07-31T05:49:30;19.20;99.90
44894;DHT22;30625;52.206;21.030;2023-07-31T05:51:56;19.10;99.90
44894;DHT22;30625;52.206;21.030;2023-07-31T05:54:22;19.10;99.90
44894;DHT22;30625;52.206;21.030;2023-07-31T05:56:47;19.10;99.90
44894;DHT22;30625;52.206;21.030;2023-07-31T05:59:13;19.10;99.90
44894;DHT22;30625;52.206;21.030;2023-07-31T06:01:39;19.10;99.90
44894;DHT22;30625;52.206;21.030;2023-07-31T06:04:05;19.10;99.90
44894;DHT22;30625;52.206;21.030;2023-07-31T06:06:30;19.20;99.90
44894;DHT22;30625;52.206;21.030;2023-07-31T06:08:56;19.20;99.90
44894;DHT22;30625;52.206;21.030;2023-07-31T06:11:22;19.10;99.90
44894;DHT22;30625;52.206;21.030;2023-07-31T06:13:48;19.10;99.90
44894;DHT22;30625;52.206;21.030;2023-07-31T06:16:15;19.10;99.90
44894;DHT22;30625;52.206;21.030;2023-07-31T06:18:42;19.10;99.90
44894;DHT22;30625;52.206;21.030;2023-07-31T06:21:08;19.00;99.90
44894;DHT22;30625;52.206;21.030;2023-07-31T06:23:34;19.00;99.90
44894;DHT22;30625;52.206;21.030;2023-07-31T06:26:00;19.00;99.90
44894;DHT22;30625;52.206;21.030;2023-07-31T06:28:29;19.10;99.90
44894;DHT22;30625;52.206;21.030;2023-07-31T06:30:56;19.10;99.90
44894;DHT22;30625;52.206;21.030;2023-07-31T06:33:21;19.10;99.90
44894;DHT22;30625;52.206;21.030;2023-07-31T06:35:47;19.10;99.90
44894;DHT22;30625;52.206;21.030;2023-07-31T06:38:13;19.10;99.90
44894;DHT22;30625;52.206;21.030;2023-07-31T06:40:38;19.10;99.90
44894;DHT22;30625;52.206;21.030;2023-07-31T06:43:05;19.00;99.90
44894;DHT22;30625;52.206;21.030;2023-07-31T06:45:35;19.00;99.90
44894;DHT22;30625;52.206;21.030;2023-07-31T06:48:01;19.00;99.90
44894;DHT22;30625;52.206;21.030;2023-07-31T06:50:28;19.00;99.90
44894;DHT22;30625;52.206;21.030;2023-07-31T06:52:54;19.00;99.90
44894;DHT22;30625;52.206;21.030;2023-07-31T06:55:20;18.90;99.90
44894;DHT22;30625;52.206;21.030;2023-07-31T06:57:48;19.00;99.90
44894;DHT22;30625;52.206;21.030;2023-07-31T07:00:14;19.00;99.90
44894;DHT22;30625;52.206;21.030;2023-07-31T07:02:40;18.90;99.90
44894;DHT22;30625;52.206;21.030;2023-07-31T07:05:06;18.90;99.90
44894;DHT22;30625;52.206;21.030;2023-07-31T07:07:32;18.90;99.90
44894;DHT22;30625;52.206;21.030;2023-07-31T07:09:58;18.90;99.90
44894;DHT22;30625;52.206;21.030;2023-07-31T07:12:29;18.90;99.90
44894;DHT22;30625;52.206;21.030;2023-07-31T07:14:55;19.00;99.90
44894;DHT22;30625;52.206;21.030;2023-07-31T07:17:23;19.10;99.90
44894;DHT22;30625;52.206;21.030;2023-07-31T07:19:48;19.10;99.90
44894;DHT22;30625;52.206;21.030;2023-07-31T07:22:14;19.30;99.90
44894;DHT22;30625;52.206;21.030;2023-07-31T07:24:40;19.40;99.90
44894;DHT22;30625;52.206;21.030;2023-07-31T07:27:06;19.60;99.90
44894;DHT22;30625;52.206;21.030;2023-07-31T07:29:33;19.70;99.90
44894;DHT22;30625;52.206;21.030;2023-07-31T07:31:59;19.80;99.90
44894;DHT22;30625;52.206;21.030;2023-07-31T07:34:26;19.90;99.90
44894;DHT22;30625;52.206;21.030;2023-07-31T07:36:52;20.10;99.90
44894;DHT22;30625;52.206;21.030;2023-07-31T07:39:18;20.20;99.90
44894;DHT22;30625;52.206;21.030;2023-07-31T07:41:43;20.30;99.90
44894;DHT22;30625;52.206;21.030;2023-07-31T07:44:09;20.40;99.90
44894;DHT22;30625;52.206;21.030;2023-07-31T07:46:35;20.40;99.90
44894;DHT22;30625;52.206;21.030;2023-07-31T07:49:00;20.60;99.90
44894;DHT22;30625;52.206;21.030;2023-07-31T07:51:26;20.70;99.90
44894;DHT22;30625;52.206;21.030;2023-07-31T07:53:52;20.80;99.90
44894;DHT22;30625;52.206;21.030;2023-07-31T07:56:17;20.90;99.90
44894;DHT22;30625;52.206;21.030;2023-07-31T07:58:43;21.00;99.90
44894;DHT22;30625;52.206;21.030;2023-07-31T08:01:09;21.10;99.90
44894;DHT22;30625;52.206;21.030;2023-07-31T08:03:34;21.10;99.90
44894;DHT22;30625;52.206;21.030;2023-07-31T08:06:00;21.20;99.90
44894;DHT22;30625;52.206;21.030;2023-07-31T08:08:26;21.30;99.90
44894;DHT22;30625;52.206;21.030;2023-07-31T08:10:52;21.40;99.90
44894;DHT22;30625;52.206;21.030;2023-07-31T08:13:17;21.60;99.90
44894;DHT22;30625;52.206;21.030;2023-07-31T08:15:43;21.70;99.90
44894;DHT22;30625;52.206;21.030;2023-07-31T08:18:10;21.70;99.90
44894;DHT22;30625;52.206;21.030;2023-07-31T08:20:37;21.80;99.90
44894;DHT22;30625;52.206;21.030;2023-07-31T08:23:03;21.70;99.50
44894;DHT22;30625;52.206;21.030;2023-07-31T08:25:29;21.80;99.80
44894;DHT22;30625;52.206;21.030;2023-07-31T08:27:54;21.90;99.00
44894;DHT22;30625;52.206;21.030;2023-07-31T08:30:21;21.90;98.30
44894;DHT22;30625;52.206;21.030;2023-07-31T08:32:47;21.80;98.70
44894;DHT22;30625;52.206;21.030;2023-07-31T08:35:12;21.80;97.60
44894;DHT22;30625;52.206;21.030;2023-07-31T08:37:38;21.80;97.70
44894;DHT22;30625;52.206;21.030;2023-07-31T08:40:05;21.80;97.40
44894;DHT22;30625;52.206;21.030;2023-07-31T08:42:31;21.80;98.10
44894;DHT22;30625;52.206;21.030;2023-07-31T08:44:57;21.90;98.70
44894;DHT22;30625;52.206;21.030;2023-07-31T08:47:23;21.90;97.30
44894;DHT22;30625;52.206;21.030;2023-07-31T08:49:50;21.90;97.10
44894;DHT22;30625;52.206;21.030;2023-07-31T08:52:16;22.10;97.20
44894;DHT22;30625;52.206;21.030;2023-07-31T08:54:42;22.20;96.90
44894;DHT22;30625;52.206;21.030;2023-07-31T08:57:08;22.20;97.20
44894;DHT22;30625;52.206;21.030;2023-07-31T08:59:35;22.30;97.30
44894;DHT22;30625;52.206;21.030;2023-07-31T09:02:07;22.40;98.00
44894;DHT22;30625;52.206;21.030;2023-07-31T09:04:34;22.40;96.40
44894;DHT22;30625;52.206;21.030;2023-07-31T09:07:01;22.50;96.50
44894;DHT22;30625;52.206;21.030;2023-07-31T09:09:30;22.50;95.40
44894;DHT22;30625;52.206;21.030;2023-07-31T09:11:56;22.60;95.80
44894;DHT22;30625;52.206;21.030;2023-07-31T09:14:24;22.50;95.90
44894;DHT22;30625;52.206;21.030;2023-07-31T09:16:55;22.60;95.10
44894;DHT22;30625;52.206;21.030;2023-07-31T09:19:33;22.60;95.40
44894;DHT22;30625;52.206;21.030;2023-07-31T09:22:02;22.70;94.40
44894;DHT22;30625;52.206;21.030;2023-07-31T09:24:29;22.80;94.20
44894;DHT22;30625;52.206;21.030;2023-07-31T09:26:56;22.90;94.30
44894;DHT22;30625;52.206;21.030;2023-07-31T09:29:22;23.00;93.80
44894;DHT22;30625;52.206;21.030;2023-07-31T09:31:48;23.20;92.90
44894;DHT22;30625;52.206;21.030;2023-07-31T09:34:14;23.20;93.00
44894;DHT22;30625;52.206;21.030;2023-07-31T09:36:40;23.20;92.40
44894;DHT22;30625;52.206;21.030;2023-07-31T09:39:09;23.20;92.70
44894;DHT22;30625;52.206;21.030;2023-07-31T09:41:44;23.30;92.50
44894;DHT22;30625;52.206;21.030;2023-07-31T09:44:10;23.20;93.30
44894;DHT22;30625;52.206;21.030;2023-07-31T09:46:35;23.20;92.40
44894;DHT22;30625;52.206;21.030;2023-07-31T09:49:09;23.30;92.70
44894;DHT22;30625;52.206;21.030;2023-07-31T09:51:38;22.50;90.50
44894;DHT22;30625;52.206;21.030;2023-07-31T09:54:12;23.50;91.40
44894;DHT22;30625;52.206;21.030;2023-07-31T09:56:45;23.70;90.90
44894;DHT22;30625;52.206;21.030;2023-07-31T09:59:16;24.00;90.60
44894;DHT22;30625;52.206;21.030;2023-07-31T10:01:43;24.50;89.70
44894;DHT22;30625;52.206;21.030;2023-07-31T10:04:10;24.80;88.20
44894;DHT22;30625;52.206;21.030;2023-07-31T10:06:37;25.10;86.50
44894;DHT22;30625;52.206;21.030;2023-07-31T10:09:05;25.60;84.30
44894;DHT22;30625;52.206;21.030;2023-07-31T10:11:38;25.90;82.90
44894;DHT22;30625;52.206;21.030;2023-07-31T10:14:05;25.90;81.20
44894;DHT22;30625;52.206;21.030;2023-07-31T10:16:31;25.90;79.50
44894;DHT22;30625;52.206;21.030;2023-07-31T10:18:58;25.80;81.20
44894;DHT22;30625;52.206;21.030;2023-07-31T10:21:24;25.60;81.30
44894;DHT22;30625;52.206;21.030;2023-07-31T10:23:50;25.60;80.10
44894;DHT22;30625;52.206;21.030;2023-07-31T10:26:17;25.40;79.90
44894;DHT22;30625;52.206;21.030;2023-07-31T10:28:45;25.00;81.50
44894;DHT22;30625;52.206;21.030;2023-07-31T10:31:12;24.90;83.30
44894;DHT22;30625;52.206;21.030;2023-07-31T10:33:39;24.80;83.20
44894;DHT22;30625;52.206;21.030;2023-07-31T10:36:18;24.70;82.30
44894;DHT22;30625;52.206;21.030;2023-07-31T10:38:43;24.80;81.80
44894;DHT22;30625;52.206;21.030;2023-07-31T10:41:09;24.70;82.60
44894;DHT22;30625;52.206;21.030;2023-07-31T10:43:39;24.70;83.40
44894;DHT22;30625;52.206;21.030;2023-07-31T10:46:11;24.80;83.60
44894;DHT22;30625;52.206;21.030;2023-07-31T10:48:38;24.90;83.80
44894;DHT22;30625;52.206;21.030;2023-07-31T10:51:22;25.10;79.80
44894;DHT22;30625;52.206;21.030;2023-07-31T10:53:48;25.20;79.10
44894;DHT22;30625;52.206;21.030;2023-07-31T10:56:13;25.20;78.60
44894;DHT22;30625;52.206;21.030;2023-07-31T10:58:44;25.30;77.40
44894;DHT22;30625;52.206;21.030;2023-07-31T11:01:11;25.20;78.80
44894;DHT22;30625;52.206;21.030;2023-07-31T11:03:43;25.30;78.50
44894;DHT22;30625;52.206;21.030;2023-07-31T11:06:09;25.20;77.10
44894;DHT22;30625;52.206;21.030;2023-07-31T11:08:36;24.90;76.50
44894;DHT22;30625;52.206;21.030;2023-07-31T11:11:08;24.90;76.20
44894;DHT22;30625;52.206;21.030;2023-07-31T11:13:39;24.90;76.60
44894;DHT22;30625;52.206;21.030;2023-07-31T11:16:05;24.90;79.30
44894;DHT22;30625;52.206;21.030;2023-07-31T11:18:30;24.90;79.50
44894;DHT22;30625;52.206;21.030;2023-07-31T11:20:56;25.00;78.80
44894;DHT22;30625;52.206;21.030;2023-07-31T11:23:22;25.10;76.30
44894;DHT22;30625;52.206;21.030;2023-07-31T11:25:48;25.10;78.40
44894;DHT22;30625;52.206;21.030;2023-07-31T11:28:15;24.20;76.70
44894;DHT22;30625;52.206;21.030;2023-07-31T11:30:42;25.30;75.50
44894;DHT22;30625;52.206;21.030;2023-07-31T11:33:10;25.40;74.50
44894;DHT22;30625;52.206;21.030;2023-07-31T11:35:42;25.40;74.70
44894;DHT22;30625;52.206;21.030;2023-07-31T11:38:11;25.50;74.40
44894;DHT22;30625;52.206;21.030;2023-07-31T11:40:43;25.50;78.10
44894;DHT22;30625;52.206;21.030;2023-07-31T11:43:08;25.40;74.00
44894;DHT22;30625;52.206;21.030;2023-07-31T11:45:35;25.40;76.20
44894;DHT22;30625;52.206;21.030;2023-07-31T11:48:00;25.40;74.90
44894;DHT22;30625;52.206;21.030;2023-07-31T11:50:26;25.40;75.40
44894;DHT22;30625;52.206;21.030;2023-07-31T11:52:57;25.30;73.50
44894;DHT22;30625;52.206;21.030;2023-07-31T11:55:25;25.20;73.00
44894;DHT22;30625;52.206;21.030;2023-07-31T11:57:52;25.20;74.30
44894;DHT22;30625;52.206;21.030;2023-07-31T12:00:19;25.00;73.60
44894;DHT22;30625;52.206;21.030;2023-07-31T12:02:46;24.80;75.10
44894;DHT22;30625;52.206;21.030;2023-07-31T12:05:12;24.70;74.50
44894;DHT22;30625;52.206;21.030;2023-07-31T12:07:52;24.70;77.50
44894;DHT22;30625;52.206;21.030;2023-07-31T12:10:28;24.60;77.20
44894;DHT22;30625;52.206;21.030;2023-07-31T12:13:08;24.40;76.50
44894;DHT22;30625;52.206;21.030;2023-07-31T12:15:45;24.30;78.90
44894;DHT22;30625;52.206;21.030;2023-07-31T12:18:13;24.20;78.40
44894;DHT22;30625;52.206;21.030;2023-07-31T12:20:43;24.10;78.10
44894;DHT22;30625;52.206;21.030;2023-07-31T12:23:17;24.20;78.30
44894;DHT22;30625;52.206;21.030;2023-07-31T12:25:44;24.30;80.40
44894;DHT22;30625;52.206;21.030;2023-07-31T12:28:09;24.30;79.50
44894;DHT22;30625;52.206;21.030;2023-07-31T12:30:39;24.30;78.40
44894;DHT22;30625;52.206;21.030;2023-07-31T12:33:12;24.30;79.50
44894;DHT22;30625;52.206;21.030;2023-07-31T12:35:40;24.40;81.00
44894;DHT22;30625;52.206;21.030;2023-07-31T12:38:06;24.40;78.20
44894;DHT22;30625;52.206;21.030;2023-07-31T12:40:32;24.40;80.70
44894;DHT22;30625;52.206;21.030;2023-07-31T12:43:00;24.40;82.00
44894;DHT22;30625;52.206;21.030;2023-07-31T12:45:27;24.30;79.80
44894;DHT22;30625;52.206;21.030;2023-07-31T12:47:52;24.20;82.50
44894;DHT22;30625;52.206;21.030;2023-07-31T12:50:18;24.00;80.50
44894;DHT22;30625;52.206;21.030;2023-07-31T12:52:43;24.10;82.40
44894;DHT22;30625;52.206;21.030;2023-07-31T12:55:09;24.20;82.30
44894;DHT22;30625;52.206;21.030;2023-07-31T12:57:36;24.00;80.80
44894;DHT22;30625;52.206;21.030;2023-07-31T13:00:02;24.10;82.40
44894;DHT22;30625;52.206;21.030;2023-07-31T13:02:28;24.00;81.90
44894;DHT22;30625;52.206;21.030;2023-07-31T13:04:54;24.00;80.10
44894;DHT22;30625;52.206;21.030;2023-07-31T13:07:22;24.10;78.30
44894;DHT22;30625;52.206;21.030;2023-07-31T13:09:48;24.00;78.50
44894;DHT22;30625;52.206;21.030;2023-07-31T13:12:13;24.00;79.50
44894;DHT22;30625;52.206;21.030;2023-07-31T13:14:39;24.00;79.60
44894;DHT22;30625;52.206;21.030;2023-07-31T13:17:04;24.10;78.90
44894;DHT22;30625;52.206;21.030;2023-07-31T13:19:30;24.30;79.50
44894;DHT22;30625;52.206;21.030;2023-07-31T13:21:56;24.40;76.00
44894;DHT22;30625;52.206;21.030;2023-07-31T13:24:21;24.50;75.60
44894;DHT22;30625;52.206;21.030;2023-07-31T13:26:47;24.70;73.70
44894;DHT22;30625;52.206;21.030;2023-07-31T13:29:12;24.80;75.30
44894;DHT22;30625;52.206;21.030;2023-07-31T13:31:38;25.00;73.90
44894;DHT22;30625;52.206;21.030;2023-07-31T13:34:08;25.00;73.40
44894;DHT22;30625;52.206;21.030;2023-07-31T13:36:33;25.10;71.30
44894;DHT22;30625;52.206;21.030;2023-07-31T13:39:00;25.10;69.90
44894;DHT22;30625;52.206;21.030;2023-07-31T13:41:26;25.20;71.40
44894;DHT22;30625;52.206;21.030;2023-07-31T13:43:52;25.20;68.90
44894;DHT22;30625;52.206;21.030;2023-07-31T13:46:17;25.20;71.70
44894;DHT22;30625;52.206;21.030;2023-07-31T13:48:43;25.20;71.10
44894;DHT22;30625;52.206;21.030;2023-07-31T13:51:08;25.20;70.60
44894;DHT22;30625;52.206;21.030;2023-07-31T13:53:34;25.10;72.10
44894;DHT22;30625;52.206;21.030;2023-07-31T13:56:00;25.20;73.00
44894;DHT22;30625;52.206;21.030;2023-07-31T13:58:25;25.20;73.20
44894;DHT22;30625;52.206;21.030;2023-07-31T14:00:51;25.30;74.70
44894;DHT22;30625;52.206;21.030;2023-07-31T14:03:16;25.30;72.10
44894;DHT22;30625;52.206;21.030;2023-07-31T14:05:42;25.30;73.00
44894;DHT22;30625;52.206;21.030;2023-07-31T14:08:08;25.30;72.50
44894;DHT22;30625;52.206;21.030;2023-07-31T14:10:33;25.30;71.90
44894;DHT22;30625;52.206;21.030;2023-07-31T14:12:59;25.10;72.00
44894;DHT22;30625;52.206;21.030;2023-07-31T14:15:24;25.10;71.20
44894;DHT22;30625;52.206;21.030;2023-07-31T14:17:50;24.90;72.10
44894;DHT22;30625;52.206;21.030;2023-07-31T14:20:15;24.70;74.70
44894;DHT22;30625;52.206;21.030;2023-07-31T14:22:41;24.60;73.60
44894;DHT22;30625;52.206;21.030;2023-07-31T14:25:07;24.40;74.00
44894;DHT22;30625;52.206;21.030;2023-07-31T14:27:35;24.40;75.00
44894;DHT22;30625;52.206;21.030;2023-07-31T14:30:01;24.30;74.60
44894;DHT22;30625;52.206;21.030;2023-07-31T14:32:27;24.30;73.30
44894;DHT22;30625;52.206;21.030;2023-07-31T14:34:52;24.30;75.40
44894;DHT22;30625;52.206;21.030;2023-07-31T14:37:18;24.30;76.50
44894;DHT22;30625;52.206;21.030;2023-07-31T14:39:43;24.30;76.50
44894;DHT22;30625;52.206;21.030;2023-07-31T14:42:09;24.20;76.30
44894;DHT22;30625;52.206;21.030;2023-07-31T14:44:35;24.20;75.10
44894;DHT22;30625;52.206;21.030;2023-07-31T14:47:00;24.10;76.40
44894;DHT22;30625;52.206;21.030;2023-07-31T14:49:26;24.00;77.20
44894;DHT22;30625;52.206;21.030;2023-07-31T14:51:54;24.10;75.90
44894;DHT22;30625;52.206;21.030;2023-07-31T14:54:19;24.20;77.10
44894;DHT22;30625;52.206;21.030;2023-07-31T14:56:45;24.30;76.90
44894;DHT22;30625;52.206;21.030;2023-07-31T14:59:11;24.30;78.00
44894;DHT22;30625;52.206;21.030;2023-07-31T15:01:37;24.30;77.00
44894;DHT22;30625;52.206;21.030;2023-07-31T15:04:02;24.30;76.30
44894;DHT22;30625;52.206;21.030;2023-07-31T15:06:28;24.20;77.00
44894;DHT22;30625;52.206;21.030;2023-07-31T15:08:54;24.20;77.00
44894;DHT22;30625;52.206;21.030;2023-07-31T15:11:19;24.10;78.80
44894;DHT22;30625;52.206;21.030;2023-07-31T15:13:45;24.00;79.00
44894;DHT22;30625;52.206;21.030;2023-07-31T15:16:11;23.90;79.20
44894;DHT22;30625;52.206;21.030;2023-07-31T15:18:36;23.80;76.50
44894;DHT22;30625;52.206;21.030;2023-07-31T15:21:02;23.80;77.10